sensor_id;sensor_type;location;lat;lon;timestamp;P1;durP1;ratioP1;P2;durP2;ratioP2
20397;SDS011;10358;49.590;11.030;2022-07-29T00:01:40;5.93;;;1.55;;
20397;SDS011;10358;49.590;11.030;2022-07-29T00:04:07;4.43;;;1.90;;
20397;SDS011;10358;49.590;11.030;2022-07-29T00:06:32;4.82;;;1.70;;
20397;SDS011;10358;49.590;11.030;2022-07-29T00:08:58;3.03;;;1.67;;
20397;SDS011;10358;49.590;11.030;2022-07-29T00:11:23;5.80;;;1.92;;
20397;SDS011;10358;49.590;11.030;2022-07-29T00:13:49;4.53;;;1.75;;
20397;SDS011;10358;49.590;11.030;2022-07-29T00:16:14;3.17;;;1.73;;
20397;SDS011;10358;49.590;11.030;2022-07-29T00:18:40;4.95;;;1.80;;
20397;SDS011;10358;49.590;11.030;2022-07-29T00:21:05;4.88;;;1.92;;
20397;SDS011;10358;49.590;11.030;2022-07-29T00:23:31;4.38;;;1.98;;
20397;SDS011;10358;49.590;11.030;2022-07-29T00:25:56;7.60;;;1.77;;
20397;SDS011;10358;49.590;11.030;2022-07-29T00:28:22;3.88;;;1.90;;
20397;SDS011;10358;49.590;11.030;2022-07-29T00:30:47;5.80;;;1.75;;
20397;SDS011;10358;49.590;11.030;2022-07-29T00:33:13;3.30;;;1.75;;
20397;SDS011;10358;49.590;11.030;2022-07-29T00:35:39;4.88;;;1.45;;
20397;SDS011;10358;49.590;11.030;2022-07-29T00:38:11;6.03;;;1.95;;
20397;SDS011;10358;49.590;11.030;2022-07-29T00:40:38;3.67;;;1.80;;
20397;SDS011;10358;49.590;11.030;2022-07-29T00:43:04;11.27;;;1.95;;
20397;SDS011;10358;49.590;11.030;2022-07-29T00:45:30;9.63;;;2.00;;
20397;SDS011;10358;49.590;11.030;2022-07-29T00:47:56;3.45;;;1.70;;
20397;SDS011;10358;49.590;11.030;2022-07-29T00:50:22;3.75;;;1.73;;
20397;SDS011;10358;49.590;11.030;2022-07-29T00:52:48;7.47;;;2.13;;
20397;SDS011;10358;49.590;11.030;2022-07-29T00:55:15;4.53;;;1.90;;
20397;SDS011;10358;49.590;11.030;2022-07-29T00:57:42;5.05;;;1.70;;
20397;SDS011;10358;49.590;11.030;2022-07-29T01:00:10;5.55;;;1.80;;
20397;SDS011;10358;49.590;11.030;2022-07-29T01:02:38;2.78;;;1.60;;
20397;SDS011;10358;49.590;11.030;2022-07-29T01:05:04;6.30;;;1.75;;
20397;SDS011;10358;49.590;11.030;2022-07-29T01:07:31;6.22;;;1.70;;
20397;SDS011;10358;49.590;11.030;2022-07-29T01:10:02;5.50;;;1.88;;
20397;SDS011;10358;49.590;11.030;2022-07-29T01:12:29;6.45;;;1.60;;
20397;SDS011;10358;49.590;11.030;2022-07-29T01:14:58;6.85;;;2.10;;
20397;SDS011;10358;49.590;11.030;2022-07-29T01:29:02;4.75;;;1.83;;
20397;SDS011;10358;49.590;11.030;2022-07-29T01:31:48;4.18;;;1.77;;
20397;SDS011;10358;49.590;11.030;2022-07-29T01:34:27;6.00;;;1.75;;
20397;SDS011;10358;49.590;11.030;2022-07-29T01:39:35;7.93;;;1.90;;
20397;SDS011;10358;49.590;11.030;2022-07-29T01:42:06;3.75;;;1.88;;
20397;SDS011;10358;49.590;11.030;2022-07-29T01:44:34;3.53;;;1.60;;
20397;SDS011;10358;49.590;11.030;2022-07-29T01:47:05;10.57;;;1.95;;
20397;SDS011;10358;49.590;11.030;2022-07-29T01:49:39;3.47;;;1.70;;
20397;SDS011;10358;49.590;11.030;2022-07-29T01:52:23;6.28;;;1.90;;
20397;SDS011;10358;49.590;11.030;2022-07-29T01:55:01;5.05;;;1.60;;
20397;SDS011;10358;49.590;11.030;2022-07-29T01:57:32;5.13;;;2.03;;
20397;SDS011;10358;49.590;11.030;2022-07-29T01:59:59;5.53;;;1.90;;
20397;SDS011;10358;49.590;11.030;2022-07-29T02:02:26;4.78;;;1.95;;
20397;SDS011;10358;49.590;11.030;2022-07-29T02:04:53;9.82;;;2.00;;
20397;SDS011;10358;49.590;11.030;2022-07-29T02:07:21;3.15;;;1.90;;
20397;SDS011;10358;49.590;11.030;2022-07-29T02:09:50;11.68;;;3.00;;
20397;SDS011;10358;49.590;11.030;2022-07-29T02:12:17;12.45;;;3.92;;
20397;SDS011;10358;49.590;11.030;2022-07-29T02:14:48;7.75;;;2.00;;
20397;SDS011;10358;49.590;11.030;2022-07-29T02:17:18;4.45;;;1.80;;
20397;SDS011;10358;49.590;11.030;2022-07-29T02:19:48;6.38;;;1.98;;
20397;SDS011;10358;49.590;11.030;2022-07-29T02:22:15;6.88;;;1.83;;
20397;SDS011;10358;49.590;11.030;2022-07-29T02:24:43;7.65;;;2.22;;
20397;SDS011;10358;49.590;11.030;2022-07-29T02:27:09;7.65;;;2.17;;
20397;SDS011;10358;49.590;11.030;2022-07-29T02:29:36;2.83;;;1.67;;
20397;SDS011;10358;49.590;11.030;2022-07-29T02:32:04;4.03;;;1.98;;
20397;SDS011;10358;49.590;11.030;2022-07-29T02:34:31;4.70;;;2.00;;
20397;SDS011;10358;49.590;11.030;2022-07-29T02:36:58;6.80;;;2.20;;
20397;SDS011;10358;49.590;11.030;2022-07-29T02:39:24;2.22;;;1.60;;
20397;SDS011;10358;49.590;11.030;2022-07-29T02:41:55;7.63;;;1.67;;
20397;SDS011;10358;49.590;11.030;2022-07-29T02:44:24;8.40;;;3.80;;
20397;SDS011;10358;49.590;11.030;2022-07-29T02:46:51;4.93;;;3.00;;
20397;SDS011;10358;49.590;11.030;2022-07-29T02:54:50;6.60;;;2.95;;
20397;SDS011;10358;49.590;11.030;2022-07-29T02:57:22;6.63;;;2.50;;
20397;SDS011;10358;49.590;11.030;2022-07-29T03:00:24;4.13;;;2.20;;
20397;SDS011;10358;49.590;11.030;2022-07-29T03:02:53;5.90;;;3.55;;
20397;SDS011;10358;49.590;11.030;2022-07-29T03:05:21;9.52;;;4.75;;
20397;SDS011;10358;49.590;11.030;2022-07-29T03:07:49;4.32;;;2.85;;
20397;SDS011;10358;49.590;11.030;2022-07-29T03:10:19;6.70;;;2.30;;
20397;SDS011;10358;49.590;11.030;2022-07-29T03:12:46;3.63;;;1.90;;
20397;SDS011;10358;49.590;11.030;2022-07-29T03:15:12;3.85;;;1.80;;
20397;SDS011;10358;49.590;11.030;2022-07-29T03:17:39;7.70;;;1.98;;
20397;SDS011;10358;49.590;11.030;2022-07-29T03:20:06;3.00;;;1.88;;
20397;SDS011;10358;49.590;11.030;2022-07-29T03:22:32;3.45;;;1.63;;
20397;SDS011;10358;49.590;11.030;2022-07-29T03:25:06;4.07;;;2.00;;
20397;SDS011;10358;49.590;11.030;2022-07-29T03:27:33;6.15;;;2.08;;
20397;SDS011;10358;49.590;11.030;2022-07-29T03:29:59;3.80;;;1.80;;
20397;SDS011;10358;49.590;11.030;2022-07-29T03:32:24;5.22;;;2.08;;
20397;SDS011;10358;49.590;11.030;2022-07-29T03:34:50;4.25;;;1.98;;
20397;SDS011;10358;49.590;11.030;2022-07-29T03:37:16;3.33;;;1.90;;
20397;SDS011;10358;49.590;11.030;2022-07-29T03:39:41;2.63;;;1.90;;
20397;SDS011;10358;49.590;11.030;2022-07-29T03:42:10;5.40;;;1.73;;
20397;SDS011;10358;49.590;11.030;2022-07-29T03:44:39;3.42;;;1.83;;
20397;SDS011;10358;49.590;11.030;2022-07-29T03:47:06;4.47;;;2.03;;
20397;SDS011;10358;49.590;11.030;2022-07-29T03:49:34;4.97;;;2.92;;
20397;SDS011;10358;49.590;11.030;2022-07-29T03:52:02;7.63;;;2.40;;
20397;SDS011;10358;49.590;11.030;2022-07-29T03:54:28;4.88;;;2.13;;
20397;SDS011;10358;49.590;11.030;2022-07-29T03:56:54;4.47;;;2.72;;
20397;SDS011;10358;49.590;11.030;2022-07-29T03:59:24;6.20;;;2.28;;
20397;SDS011;10358;49.590;11.030;2022-07-29T04:01:49;6.93;;;2.17;;
20397;SDS011;10358;49.590;11.030;2022-07-29T04:04:16;3.05;;;2.10;;
20397;SDS011;10358;49.590;11.030;2022-07-29T04:06:42;9.48;;;2.13;;
20397;SDS011;10358;49.590;11.030;2022-07-29T04:09:09;5.30;;;2.38;;
20397;SDS011;10358;49.590;11.030;2022-07-29T04:11:36;3.13;;;2.10;;
20397;SDS011;10358;49.590;11.030;2022-07-29T04:14:04;4.13;;;1.80;;
20397;SDS011;10358;49.590;11.030;2022-07-29T04:16:29;3.78;;;1.88;;
20397;SDS011;10358;49.590;11.030;2022-07-29T04:18:56;4.45;;;1.92;;
20397;SDS011;10358;49.590;11.030;2022-07-29T04:21:21;8.13;;;2.13;;
20397;SDS011;10358;49.590;11.030;2022-07-29T04:23:47;4.68;;;2.15;;
20397;SDS011;10358;49.590;11.030;2022-07-29T04:26:15;7.55;;;3.03;;
20397;SDS011;10358;49.590;11.030;2022-07-29T04:28:41;9.18;;;2.30;;
20397;SDS011;10358;49.590;11.030;2022-07-29T04:31:07;6.45;;;2.15;;
20397;SDS011;10358;49.590;11.030;2022-07-29T04:33:33;4.13;;;2.17;;
20397;SDS011;10358;49.590;11.030;2022-07-29T04:35:59;4.25;;;2.50;;
20397;SDS011;10358;49.590;11.030;2022-07-29T04:38:24;3.25;;;2.10;;
20397;SDS011;10358;49.590;11.030;2022-07-29T04:40:50;11.10;;;5.03;;
20397;SDS011;10358;49.590;11.030;2022-07-29T04:43:15;11.70;;;5.63;;
20397;SDS011;10358;49.590;11.030;2022-07-29T04:45:41;6.30;;;2.90;;
20397;SDS011;10358;49.590;11.030;2022-07-29T04:48:07;5.18;;;2.88;;
20397;SDS011;10358;49.590;11.030;2022-07-29T04:50:33;14.15;;;4.57;;
20397;SDS011;10358;49.590;11.030;2022-07-29T04:52:58;7.50;;;4.15;;
20397;SDS011;10358;49.590;11.030;2022-07-29T04:55:24;4.97;;;2.70;;
20397;SDS011;10358;49.590;11.030;2022-07-29T04:57:50;4.40;;;2.40;;
20397;SDS011;10358;49.590;11.030;2022-07-29T05:00:16;7.03;;;2.10;;
20397;SDS011;10358;49.590;11.030;2022-07-29T05:02:41;3.30;;;2.00;;
20397;SDS011;10358;49.590;11.030;2022-07-29T05:05:07;6.70;;;1.95;;
20397;SDS011;10358;49.590;11.030;2022-07-29T05:07:33;4.10;;;2.47;;
20397;SDS011;10358;49.590;11.030;2022-07-29T05:09:58;8.63;;;2.30;;
20397;SDS011;10358;49.590;11.030;2022-07-29T05:12:24;6.55;;;2.40;;
20397;SDS011;10358;49.590;11.030;2022-07-29T05:14:50;8.52;;;2.45;;
20397;SDS011;10358;49.590;11.030;2022-07-29T05:17:16;8.70;;;2.70;;
20397;SDS011;10358;49.590;11.030;2022-07-29T05:19:41;8.70;;;2.42;;
20397;SDS011;10358;49.590;11.030;2022-07-29T05:22:07;5.53;;;2.28;;
20397;SDS011;10358;49.590;11.030;2022-07-29T05:24:32;5.15;;;2.20;;
20397;SDS011;10358;49.590;11.030;2022-07-29T05:26:58;5.90;;;2.15;;
20397;SDS011;10358;49.590;11.030;2022-07-29T05:29:23;8.02;;;2.17;;
20397;SDS011;10358;49.590;11.030;2022-07-29T05:31:49;6.72;;;2.10;;
20397;SDS011;10358;49.590;11.030;2022-07-29T05:34:16;2.95;;;1.83;;
20397;SDS011;10358;49.590;11.030;2022-07-29T05:36:42;6.55;;;2.40;;
20397;SDS011;10358;49.590;11.030;2022-07-29T05:39:07;3.40;;;2.10;;
20397;SDS011;10358;49.590;11.030;2022-07-29T05:41:33;5.57;;;2.30;;
20397;SDS011;10358;49.590;11.030;2022-07-29T05:43:58;9.80;;;2.10;;
20397;SDS011;10358;49.590;11.030;2022-07-29T05:46:24;6.15;;;2.22;;
20397;SDS011;10358;49.590;11.030;2022-07-29T05:48:50;5.18;;;2.13;;
20397;SDS011;10358;49.590;11.030;2022-07-29T05:51:15;3.80;;;2.00;;
20397;SDS011;10358;49.590;11.030;2022-07-29T05:53:41;4.97;;;2.65;;
20397;SDS011;10358;49.590;11.030;2022-07-29T05:56:07;6.90;;;2.28;;
20397;SDS011;10358;49.590;11.030;2022-07-29T05:58:32;3.45;;;1.80;;
20397;SDS011;10358;49.590;11.030;2022-07-29T06:00:58;4.57;;;2.22;;
20397;SDS011;10358;49.590;11.030;2022-07-29T06:03:26;5.22;;;2.28;;
20397;SDS011;10358;49.590;11.030;2022-07-29T06:05:52;7.63;;;2.25;;
20397;SDS011;10358;49.590;11.030;2022-07-29T06:08:18;8.60;;;2.05;;
20397;SDS011;10358;49.590;11.030;2022-07-29T06:10:44;4.57;;;2.00;;
20397;SDS011;10358;49.590;11.030;2022-07-29T06:13:10;3.90;;;2.00;;
20397;SDS011;10358;49.590;11.030;2022-07-29T06:15:37;5.15;;;1.90;;
20397;SDS011;10358;49.590;11.030;2022-07-29T06:18:02;8.20;;;1.92;;
20397;SDS011;10358;49.590;11.030;2022-07-29T06:20:28;8.00;;;2.20;;
20397;SDS011;10358;49.590;11.030;2022-07-29T06:22:54;2.40;;;1.77;;
20397;SDS011;10358;49.590;11.030;2022-07-29T06:25:20;11.98;;;2.17;;
20397;SDS011;10358;49.590;11.030;2022-07-29T06:27:46;7.78;;;1.95;;
20397;SDS011;10358;49.590;11.030;2022-07-29T06:30:12;6.35;;;2.22;;
20397;SDS011;10358;49.590;11.030;2022-07-29T06:32:37;5.07;;;1.98;;
20397;SDS011;10358;49.590;11.030;2022-07-29T06:35:03;3.95;;;2.30;;
20397;SDS011;10358;49.590;11.030;2022-07-29T06:37:29;6.50;;;2.17;;
20397;SDS011;10358;49.590;11.030;2022-07-29T06:39:55;4.25;;;1.90;;
20397;SDS011;10358;49.590;11.030;2022-07-29T06:42:42;9.23;;;2.20;;
20397;SDS011;10358;49.590;11.030;2022-07-29T06:45:09;4.10;;;2.20;;
20397;SDS011;10358;49.590;11.030;2022-07-29T06:47:35;2.78;;;2.10;;
20397;SDS011;10358;49.590;11.030;2022-07-29T06:50:00;6.68;;;1.98;;
20397;SDS011;10358;49.590;11.030;2022-07-29T06:52:26;5.60;;;2.20;;
20397;SDS011;10358;49.590;11.030;2022-07-29T06:54:51;5.68;;;2.10;;
20397;SDS011;10358;49.590;11.030;2022-07-29T06:57:17;2.80;;;1.98;;
20397;SDS011;10358;49.590;11.030;2022-07-29T06:59:42;3.67;;;2.00;;
20397;SDS011;10358;49.590;11.030;2022-07-29T07:02:08;5.85;;;2.40;;
20397;SDS011;10358;49.590;11.030;2022-07-29T07:04:33;6.60;;;2.10;;
20397;SDS011;10358;49.590;11.030;2022-07-29T07:07:00;5.43;;;2.10;;
20397;SDS011;10358;49.590;11.030;2022-07-29T07:09:25;8.65;;;2.40;;
20397;SDS011;10358;49.590;11.030;2022-07-29T07:11:51;7.90;;;2.20;;
20397;SDS011;10358;49.590;11.030;2022-07-29T07:14:16;2.88;;;1.90;;
20397;SDS011;10358;49.590;11.030;2022-07-29T07:16:42;3.53;;;2.13;;
20397;SDS011;10358;49.590;11.030;2022-07-29T07:19:07;4.20;;;2.30;;
20397;SDS011;10358;49.590;11.030;2022-07-29T07:21:33;5.30;;;2.10;;
20397;SDS011;10358;49.590;11.030;2022-07-29T07:23:59;5.20;;;2.22;;
20397;SDS011;10358;49.590;11.030;2022-07-29T07:26:25;5.88;;;2.00;;
20397;SDS011;10358;49.590;11.030;2022-07-29T07:28:51;6.70;;;2.13;;
20397;SDS011;10358;49.590;11.030;2022-07-29T07:31:17;3.47;;;1.95;;
20397;SDS011;10358;49.590;11.030;2022-07-29T07:33:43;6.10;;;2.08;;
20397;SDS011;10358;49.590;11.030;2022-07-29T07:36:08;6.30;;;2.40;;
20397;SDS011;10358;49.590;11.030;2022-07-29T07:38:34;8.25;;;2.30;;
20397;SDS011;10358;49.590;11.030;2022-07-29T07:41:00;4.85;;;2.33;;
20397;SDS011;10358;49.590;11.030;2022-07-29T07:43:26;6.13;;;2.40;;
20397;SDS011;10358;49.590;11.030;2022-07-29T07:45:51;4.32;;;2.10;;
20397;SDS011;10358;49.590;11.030;2022-07-29T07:48:17;4.63;;;2.15;;
20397;SDS011;10358;49.590;11.030;2022-07-29T07:50:43;7.70;;;2.42;;
20397;SDS011;10358;49.590;11.030;2022-07-29T07:53:08;3.97;;;2.40;;
20397;SDS011;10358;49.590;11.030;2022-07-29T07:55:38;7.10;;;2.25;;
20397;SDS011;10358;49.590;11.030;2022-07-29T07:58:05;4.72;;;2.35;;
20397;SDS011;10358;49.590;11.030;2022-07-29T08:00:31;5.05;;;2.45;;
20397;SDS011;10358;49.590;11.030;2022-07-29T08:02:57;4.88;;;2.50;;
20397;SDS011;10358;49.590;11.030;2022-07-29T08:05:23;4.22;;;2.20;;
20397;SDS011;10358;49.590;11.030;2022-07-29T08:07:48;3.53;;;2.10;;
20397;SDS011;10358;49.590;11.030;2022-07-29T08:10:15;4.65;;;2.40;;
20397;SDS011;10358;49.590;11.030;2022-07-29T08:13:02;7.30;;;2.30;;
20397;SDS011;10358;49.590;11.030;2022-07-29T08:15:29;8.60;;;2.20;;
20397;SDS011;10358;49.590;11.030;2022-07-29T08:17:54;5.35;;;2.30;;
20397;SDS011;10358;49.590;11.030;2022-07-29T08:20:20;4.43;;;2.30;;
20397;SDS011;10358;49.590;11.030;2022-07-29T08:22:45;7.05;;;2.40;;
20397;SDS011;10358;49.590;11.030;2022-07-29T08:25:11;4.60;;;2.50;;
20397;SDS011;10358;49.590;11.030;2022-07-29T08:27:36;2.65;;;2.08;;
20397;SDS011;10358;49.590;11.030;2022-07-29T08:30:02;6.22;;;2.88;;
20397;SDS011;10358;49.590;11.030;2022-07-29T08:32:28;4.75;;;2.33;;
20397;SDS011;10358;49.590;11.030;2022-07-29T08:34:53;4.60;;;2.22;;
20397;SDS011;10358;49.590;11.030;2022-07-29T08:37:19;9.48;;;2.30;;
20397;SDS011;10358;49.590;11.030;2022-07-29T08:39:44;5.43;;;2.35;;
20397;SDS011;10358;49.590;11.030;2022-07-29T08:42:10;5.40;;;2.30;;
20397;SDS011;10358;49.590;11.030;2022-07-29T08:44:36;6.95;;;2.55;;
20397;SDS011;10358;49.590;11.030;2022-07-29T08:47:02;5.28;;;2.20;;
20397;SDS011;10358;49.590;11.030;2022-07-29T08:49:28;8.27;;;2.22;;
20397;SDS011;10358;49.590;11.030;2022-07-29T08:51:53;5.85;;;2.42;;
20397;SDS011;10358;49.590;11.030;2022-07-29T08:54:21;3.20;;;2.20;;
20397;SDS011;10358;49.590;11.030;2022-07-29T08:56:48;5.68;;;2.67;;
20397;SDS011;10358;49.590;11.030;2022-07-29T08:59:15;4.38;;;2.35;;
20397;SDS011;10358;49.590;11.030;2022-07-29T09:01:47;4.47;;;2.92;;
20397;SDS011;10358;49.590;11.030;2022-07-29T09:04:13;7.95;;;2.40;;
20397;SDS011;10358;49.590;11.030;2022-07-29T09:06:42;5.85;;;2.78;;
20397;SDS011;10358;49.590;11.030;2022-07-29T09:09:09;4.63;;;2.40;;
20397;SDS011;10358;49.590;11.030;2022-07-29T09:11:35;4.45;;;2.35;;
20397;SDS011;10358;49.590;11.030;2022-07-29T09:14:01;6.05;;;2.38;;
20397;SDS011;10358;49.590;11.030;2022-07-29T09:16:42;3.95;;;1.90;;
20397;SDS011;10358;49.590;11.030;2022-07-29T09:21:51;7.30;;;2.42;;
20397;SDS011;10358;49.590;11.030;2022-07-29T09:24:24;12.10;;;2.65;;
20397;SDS011;10358;49.590;11.030;2022-07-29T09:26:59;3.22;;;2.10;;
20397;SDS011;10358;49.590;11.030;2022-07-29T09:29:25;9.27;;;2.40;;
20397;SDS011;10358;49.590;11.030;2022-07-29T09:31:52;7.03;;;2.35;;
20397;SDS011;10358;49.590;11.030;2022-07-29T09:36:49;6.50;;;2.15;;
20397;SDS011;10358;49.590;11.030;2022-07-29T09:39:25;7.47;;;2.63;;
20397;SDS011;10358;49.590;11.030;2022-07-29T09:42:10;5.30;;;2.25;;
20397;SDS011;10358;49.590;11.030;2022-07-29T09:44:46;5.82;;;2.50;;
20397;SDS011;10358;49.590;11.030;2022-07-29T09:47:13;6.03;;;2.60;;
20397;SDS011;10358;49.590;11.030;2022-07-29T09:49:59;7.10;;;2.63;;
20397;SDS011;10358;49.590;11.030;2022-07-29T09:52:25;4.50;;;2.83;;
20397;SDS011;10358;49.590;11.030;2022-07-29T09:54:52;8.15;;;2.60;;
20397;SDS011;10358;49.590;11.030;2022-07-29T09:57:23;6.20;;;2.97;;
20397;SDS011;10358;49.590;11.030;2022-07-29T10:02:32;5.30;;;2.42;;
20397;SDS011;10358;49.590;11.030;2022-07-29T10:05:00;5.40;;;2.72;;
20397;SDS011;10358;49.590;11.030;2022-07-29T10:07:29;10.93;;;3.22;;
20397;SDS011;10358;49.590;11.030;2022-07-29T10:10:35;4.53;;;2.60;;
20397;SDS011;10358;49.590;11.030;2022-07-29T10:13:03;4.30;;;2.78;;
20397;SDS011;10358;49.590;11.030;2022-07-29T10:15:31;6.43;;;3.00;;
20397;SDS011;10358;49.590;11.030;2022-07-29T10:18:01;3.03;;;2.47;;
20397;SDS011;10358;49.590;11.030;2022-07-29T10:20:27;6.55;;;2.83;;
20397;SDS011;10358;49.590;11.030;2022-07-29T10:22:53;10.18;;;3.13;;
20397;SDS011;10358;49.590;11.030;2022-07-29T10:25:20;6.90;;;3.50;;
20397;SDS011;10358;49.590;11.030;2022-07-29T10:27:47;7.75;;;2.97;;
20397;SDS011;10358;49.590;11.030;2022-07-29T10:30:14;5.53;;;3.25;;
20397;SDS011;10358;49.590;11.030;2022-07-29T10:32:49;7.18;;;2.90;;
20397;SDS011;10358;49.590;11.030;2022-07-29T10:35:39;4.65;;;2.85;;
20397;SDS011;10358;49.590;11.030;2022-07-29T10:43:58;4.65;;;3.20;;
20397;SDS011;10358;49.590;11.030;2022-07-29T10:46:26;4.63;;;2.88;;
20397;SDS011;10358;49.590;11.030;2022-07-29T10:49:05;7.85;;;3.30;;
20397;SDS011;10358;49.590;11.030;2022-07-29T10:54:58;6.93;;;3.05;;
20397;SDS011;10358;49.590;11.030;2022-07-29T10:59:41;5.68;;;3.30;;
20397;SDS011;10358;49.590;11.030;2022-07-29T11:04:59;8.45;;;3.55;;
20397;SDS011;10358;49.590;11.030;2022-07-29T11:07:28;7.75;;;3.30;;
20397;SDS011;10358;49.590;11.030;2022-07-29T11:15:07;4.38;;;3.28;;
20397;SDS011;10358;49.590;11.030;2022-07-29T11:23:17;5.65;;;3.53;;
20397;SDS011;10358;49.590;11.030;2022-07-29T11:25:42;5.65;;;3.63;;
20397;SDS011;10358;49.590;11.030;2022-07-29T11:28:10;4.78;;;3.55;;
20397;SDS011;10358;49.590;11.030;2022-07-29T11:30:48;9.05;;;3.30;;
20397;SDS011;10358;49.590;11.030;2022-07-29T11:33:34;5.43;;;3.50;;
20397;SDS011;10358;49.590;11.030;2022-07-29T11:36:07;6.00;;;3.35;;
20397;SDS011;10358;49.590;11.030;2022-07-29T11:38:33;7.57;;;3.78;;
20397;SDS011;10358;49.590;11.030;2022-07-29T11:43:48;8.68;;;3.40;;
20397;SDS011;10358;49.590;11.030;2022-07-29T11:46:17;6.22;;;3.70;;
20397;SDS011;10358;49.590;11.030;2022-07-29T11:49:03;5.38;;;3.55;;
20397;SDS011;10358;49.590;11.030;2022-07-29T11:51:29;6.55;;;3.33;;
20397;SDS011;10358;49.590;11.030;2022-07-29T11:53:56;5.78;;;3.50;;
20397;SDS011;10358;49.590;11.030;2022-07-29T11:56:23;5.03;;;3.42;;
20397;SDS011;10358;49.590;11.030;2022-07-29T11:58:50;4.80;;;3.50;;
20397;SDS011;10358;49.590;11.030;2022-07-29T12:01:25;5.95;;;3.30;;
20397;SDS011;10358;49.590;11.030;2022-07-29T12:04:01;7.20;;;3.63;;
20397;SDS011;10358;49.590;11.030;2022-07-29T12:06:28;4.22;;;3.40;;
20397;SDS011;10358;49.590;11.030;2022-07-29T12:08:54;7.90;;;3.67;;
20397;SDS011;10358;49.590;11.030;2022-07-29T12:11:20;5.20;;;3.83;;
20397;SDS011;10358;49.590;11.030;2022-07-29T12:13:45;5.57;;;3.65;;
20397;SDS011;10358;49.590;11.030;2022-07-29T12:16:11;3.88;;;3.00;;
20397;SDS011;10358;49.590;11.030;2022-07-29T12:18:37;5.18;;;3.30;;
20397;SDS011;10358;49.590;11.030;2022-07-29T12:21:02;7.60;;;3.20;;
20397;SDS011;10358;49.590;11.030;2022-07-29T12:23:32;7.18;;;3.30;;
20397;SDS011;10358;49.590;11.030;2022-07-29T12:25:58;6.72;;;3.50;;
20397;SDS011;10358;49.590;11.030;2022-07-29T12:28:24;5.35;;;3.20;;
20397;SDS011;10358;49.590;11.030;2022-07-29T12:30:51;9.65;;;3.50;;
20397;SDS011;10358;49.590;11.030;2022-07-29T12:35:42;3.72;;;3.20;;
20397;SDS011;10358;49.590;11.030;2022-07-29T12:38:11;7.05;;;3.08;;
20397;SDS011;10358;49.590;11.030;2022-07-29T12:40:37;3.60;;;3.20;;
20397;SDS011;10358;49.590;11.030;2022-07-29T12:43:22;8.77;;;3.30;;
20397;SDS011;10358;49.590;11.030;2022-07-29T12:45:49;4.57;;;3.05;;
20397;SDS011;10358;49.590;11.030;2022-07-29T12:48:34;5.78;;;2.90;;
20397;SDS011;10358;49.590;11.030;2022-07-29T12:51:08;4.35;;;3.00;;
20397;SDS011;10358;49.590;11.030;2022-07-29T12:53:35;4.45;;;3.08;;
20397;SDS011;10358;49.590;11.030;2022-07-29T12:56:02;4.50;;;3.30;;
20397;SDS011;10358;49.590;11.030;2022-07-29T12:58:30;8.02;;;2.95;;
20397;SDS011;10358;49.590;11.030;2022-07-29T13:03:52;4.78;;;3.13;;
20397;SDS011;10358;49.590;11.030;2022-07-29T13:06:27;4.68;;;3.38;;
20397;SDS011;10358;49.590;11.030;2022-07-29T13:09:01;6.32;;;3.28;;
20397;SDS011;10358;49.590;11.030;2022-07-29T13:13:58;7.20;;;2.80;;
20397;SDS011;10358;49.590;11.030;2022-07-29T13:16:23;5.63;;;3.22;;
20397;SDS011;10358;49.590;11.030;2022-07-29T13:19:02;6.45;;;3.00;;
20397;SDS011;10358;49.590;11.030;2022-07-29T13:21:31;5.20;;;3.42;;
20397;SDS011;10358;49.590;11.030;2022-07-29T13:23:56;3.85;;;2.65;;
20397;SDS011;10358;49.590;11.030;2022-07-29T13:26:22;5.68;;;3.17;;
20397;SDS011;10358;49.590;11.030;2022-07-29T13:28:47;8.43;;;3.20;;
20397;SDS011;10358;49.590;11.030;2022-07-29T13:31:13;6.85;;;3.30;;
20397;SDS011;10358;49.590;11.030;2022-07-29T13:33:38;7.53;;;3.22;;
20397;SDS011;10358;49.590;11.030;2022-07-29T13:36:04;7.03;;;3.03;;
20397;SDS011;10358;49.590;11.030;2022-07-29T13:38:30;6.45;;;3.60;;
20397;SDS011;10358;49.590;11.030;2022-07-29T13:40:57;4.63;;;3.10;;
20397;SDS011;10358;49.590;11.030;2022-07-29T13:43:22;5.18;;;2.80;;
20397;SDS011;10358;49.590;11.030;2022-07-29T13:45:48;5.00;;;2.97;;
20397;SDS011;10358;49.590;11.030;2022-07-29T13:48:13;7.13;;;3.03;;
20397;SDS011;10358;49.590;11.030;2022-07-29T13:50:39;7.22;;;2.83;;
20397;SDS011;10358;49.590;11.030;2022-07-29T13:53:05;5.78;;;2.65;;
20397;SDS011;10358;49.590;11.030;2022-07-29T13:55:30;3.72;;;2.75;;
20397;SDS011;10358;49.590;11.030;2022-07-29T13:57:56;7.30;;;3.00;;
20397;SDS011;10358;49.590;11.030;2022-07-29T14:00:21;5.93;;;2.60;;
20397;SDS011;10358;49.590;11.030;2022-07-29T14:02:51;4.03;;;2.80;;
20397;SDS011;10358;49.590;11.030;2022-07-29T14:05:17;7.20;;;3.40;;
20397;SDS011;10358;49.590;11.030;2022-07-29T14:07:43;5.70;;;3.00;;
20397;SDS011;10358;49.590;11.030;2022-07-29T14:10:08;6.85;;;2.67;;
20397;SDS011;10358;49.590;11.030;2022-07-29T14:12:34;7.07;;;3.08;;
20397;SDS011;10358;49.590;11.030;2022-07-29T14:15:00;6.80;;;2.50;;
20397;SDS011;10358;49.590;11.030;2022-07-29T14:17:26;9.43;;;2.60;;
20397;SDS011;10358;49.590;11.030;2022-07-29T14:19:51;10.15;;;2.90;;
20397;SDS011;10358;49.590;11.030;2022-07-29T14:22:17;15.27;;;3.00;;
20397;SDS011;10358;49.590;11.030;2022-07-29T14:24:44;12.77;;;3.22;;
20397;SDS011;10358;49.590;11.030;2022-07-29T14:27:10;7.70;;;2.88;;
20397;SDS011;10358;49.590;11.030;2022-07-29T14:29:36;10.98;;;3.25;;
20397;SDS011;10358;49.590;11.030;2022-07-29T14:32:02;9.02;;;2.92;;
20397;SDS011;10358;49.590;11.030;2022-07-29T14:34:27;18.58;;;4.25;;
20397;SDS011;10358;49.590;11.030;2022-07-29T14:36:53;12.88;;;4.38;;
20397;SDS011;10358;49.590;11.030;2022-07-29T14:39:20;14.20;;;4.80;;
20397;SDS011;10358;49.590;11.030;2022-07-29T14:41:47;16.80;;;4.55;;
20397;SDS011;10358;49.590;11.030;2022-07-29T14:44:14;15.45;;;4.05;;
20397;SDS011;10358;49.590;11.030;2022-07-29T14:46:39;15.98;;;4.50;;
20397;SDS011;10358;49.590;11.030;2022-07-29T14:49:05;7.78;;;4.00;;
20397;SDS011;10358;49.590;11.030;2022-07-29T14:51:31;13.43;;;4.20;;
20397;SDS011;10358;49.590;11.030;2022-07-29T14:53:56;9.52;;;3.92;;
20397;SDS011;10358;49.590;11.030;2022-07-29T14:56:22;8.45;;;3.65;;
20397;SDS011;10358;49.590;11.030;2022-07-29T14:58:48;8.48;;;4.15;;
20397;SDS011;10358;49.590;11.030;2022-07-29T15:01:13;10.18;;;4.30;;
20397;SDS011;10358;49.590;11.030;2022-07-29T15:03:39;9.23;;;3.70;;
20397;SDS011;10358;49.590;11.030;2022-07-29T15:06:05;11.90;;;4.57;;
20397;SDS011;10358;49.590;11.030;2022-07-29T15:08:30;7.68;;;4.00;;
20397;SDS011;10358;49.590;11.030;2022-07-29T15:10:56;9.73;;;4.53;;
20397;SDS011;10358;49.590;11.030;2022-07-29T15:13:24;7.47;;;4.40;;
20397;SDS011;10358;49.590;11.030;2022-07-29T15:15:50;6.97;;;4.28;;
20397;SDS011;10358;49.590;11.030;2022-07-29T15:18:16;9.02;;;4.88;;
20397;SDS011;10358;49.590;11.030;2022-07-29T15:20:41;5.82;;;4.15;;
20397;SDS011;10358;49.590;11.030;2022-07-29T15:23:07;8.75;;;4.38;;
20397;SDS011;10358;49.590;11.030;2022-07-29T15:25:34;8.25;;;4.20;;
20397;SDS011;10358;49.590;11.030;2022-07-29T15:28:01;6.50;;;4.00;;
20397;SDS011;10358;49.590;11.030;2022-07-29T15:30:29;7.38;;;4.25;;
20397;SDS011;10358;49.590;11.030;2022-07-29T15:32:55;7.22;;;4.57;;
20397;SDS011;10358;49.590;11.030;2022-07-29T15:35:20;7.25;;;4.68;;
20397;SDS011;10358;49.590;11.030;2022-07-29T15:37:46;10.40;;;4.72;;
20397;SDS011;10358;49.590;11.030;2022-07-29T15:40:12;6.70;;;3.90;;